createdAt,value
2022-10-06T00:00:46.027Z,15.84
2022-10-06T00:04:48.071Z,15.79
2022-10-06T00:08:50.113Z,15.73
2022-10-06T00:12:52.662Z,15.70
2022-10-06T00:16:54.736Z,15.69
2022-10-06T00:20:58.924Z,15.67
2022-10-06T00:25:01.273Z,15.64
2022-10-06T00:29:03.852Z,15.65
2022-10-06T00:33:05.865Z,15.65
2022-10-06T00:37:07.869Z,15.74
2022-10-06T00:41:13.872Z,15.83
2022-10-06T00:45:17.205Z,15.90
2022-10-06T00:49:37.994Z,15.95
2022-10-06T00:53:40.891Z,16.03
2022-10-06T00:57:43.441Z,16.12
2022-10-06T01:01:53.843Z,16.23
2022-10-06T01:05:57.173Z,16.31
2022-10-06T01:09:59.486Z,16.37
2022-10-06T01:14:01.534Z,16.43
2022-10-06T01:18:09.668Z,16.49
2022-10-06T01:22:15.594Z,16.54
2022-10-06T01:26:20.481Z,16.56
2022-10-06T01:30:29.900Z,16.47
2022-10-06T01:34:32.039Z,16.16
2022-10-06T01:38:34.307Z,16.16
2022-10-06T01:42:38.964Z,16.16
2022-10-06T01:46:41.246Z,15.92
2022-10-06T01:50:44.293Z,15.79
2022-10-06T01:54:46.403Z,15.65
2022-10-06T01:58:48.812Z,15.52
2022-10-06T02:02:51.027Z,15.41
2022-10-06T02:06:55.382Z,15.31
2022-10-06T02:10:57.488Z,15.28
2022-10-06T02:15:01.757Z,15.21
2022-10-06T02:19:04.625Z,15.13
2022-10-06T02:23:06.663Z,15.06
2022-10-06T02:27:08.729Z,15.06
2022-10-06T02:31:12.525Z,15.03
2022-10-06T02:35:15.509Z,15.01
2022-10-06T02:39:19.096Z,15.01
2022-10-06T02:43:22.029Z,15.02
2022-10-06T02:47:24.193Z,14.96
2022-10-06T02:51:26.426Z,14.88
2022-10-06T02:55:31.157Z,14.84
2022-10-06T02:59:35.860Z,14.84
2022-10-06T03:03:40.821Z,14.82
2022-10-06T03:07:42.888Z,14.82
2022-10-06T03:11:45.660Z,14.83
2022-10-06T03:16:18.057Z,14.87
2022-10-06T03:20:20.743Z,14.93
2022-10-06T03:24:22.892Z,14.94
2022-10-06T03:28:30.456Z,14.89
2022-10-06T03:32:32.742Z,14.85
2022-10-06T03:36:36.164Z,14.88
2022-10-06T03:40:38.320Z,14.88
2022-10-06T03:44:40.492Z,14.87
2022-10-06T03:48:43.228Z,14.88
2022-10-06T03:52:45.328Z,14.77
2022-10-06T03:56:47.546Z,14.76
2022-10-06T04:00:49.647Z,14.76
2022-10-06T04:04:51.832Z,14.79
2022-10-06T04:08:55.171Z,14.80
2022-10-06T04:12:57.645Z,14.79
2022-10-06T04:17:01.474Z,14.73
2022-10-06T04:21:07.803Z,14.61
2022-10-06T04:25:10.076Z,14.47
2022-10-06T04:29:13.017Z,14.32
2022-10-06T04:33:15.815Z,14.24
2022-10-06T04:37:18.311Z,14.13
2022-10-06T04:41:21.013Z,14.07
2022-10-06T04:45:23.189Z,14.02
2022-10-06T04:49:25.307Z,14.03
2022-10-06T04:53:29.889Z,13.96
2022-10-06T04:57:32.604Z,13.83
2022-10-06T05:01:36.934Z,13.70
2022-10-06T05:05:43.294Z,13.59
2022-10-06T05:09:45.637Z,13.44
2022-10-06T05:13:49.514Z,13.33
2022-10-06T05:17:51.706Z,13.24
2022-10-06T05:21:53.775Z,13.14
2022-10-06T05:26:00.269Z,13.05
2022-10-06T05:30:03.214Z,13.00
2022-10-06T05:34:06.030Z,13.01
2022-10-06T05:38:11.650Z,12.98
2022-10-06T05:42:13.983Z,12.91
2022-10-06T05:46:25.139Z,12.84
2022-10-06T05:50:29.254Z,12.77
2022-10-06T05:54:31.793Z,13.05
2022-10-06T05:58:36.021Z,13.29
2022-10-06T06:02:38.392Z,13.21
2022-10-06T06:06:45.673Z,13.10
2022-10-06T06:10:51.501Z,13.05
2022-10-06T06:15:12.251Z,13.07
2022-10-06T06:19:19.138Z,13.16
2022-10-06T06:23:21.754Z,13.15
2022-10-06T06:27:24.690Z,13.18
2022-10-06T06:31:29.783Z,13.18
2022-10-06T06:35:31.902Z,13.16
2022-10-06T06:39:34.749Z,13.17
2022-10-06T06:43:36.838Z,13.17
2022-10-06T06:47:57.958Z,13.20
2022-10-06T06:52:00.009Z,13.20
2022-10-06T06:56:05.068Z,13.16
2022-10-06T07:00:09.527Z,13.21
2022-10-06T07:04:15.803Z,13.24
2022-10-06T07:08:20.551Z,13.25
2022-10-06T07:12:25.316Z,13.26
2022-10-06T07:16:51.128Z,13.28
2022-10-06T07:21:12.731Z,13.33
2022-10-06T07:25:26.033Z,13.40
2022-10-06T07:29:40.559Z,13.49
2022-10-06T07:33:43.170Z,13.62
2022-10-06T07:37:45.497Z,13.73
2022-10-06T07:41:47.658Z,13.80
2022-10-06T07:45:50.041Z,13.89
2022-10-06T07:50:12.975Z,13.92
2022-10-06T07:54:15.211Z,14.16
2022-10-06T07:58:37.348Z,14.36
2022-10-06T08:02:39.845Z,14.75
2022-10-06T08:06:42.202Z,15.00
2022-10-06T08:10:52.802Z,15.67
2022-10-06T08:14:55.086Z,15.73
2022-10-06T08:18:59.213Z,15.57
2022-10-06T08:23:01.307Z,15.52
2022-10-06T08:27:03.380Z,15.55
2022-10-06T08:31:12.496Z,15.61
2022-10-06T08:35:14.629Z,15.57
2022-10-06T08:39:18.051Z,15.54
2022-10-06T08:43:23.090Z,15.63
2022-10-06T08:47:28.986Z,15.67
2022-10-06T08:51:57.210Z,15.88
2022-10-06T08:56:18.231Z,16.00
2022-10-06T09:00:22.201Z,16.07
2022-10-06T09:04:29.077Z,16.15
2022-10-06T09:09:03.506Z,16.24
2022-10-06T09:13:08.839Z,16.29
2022-10-06T09:17:15.914Z,16.37
2022-10-06T09:21:30.267Z,16.44
2022-10-06T09:25:33.494Z,16.49
2022-10-06T09:29:35.485Z,16.56
2022-10-06T09:33:39.764Z,16.62
2022-10-06T09:38:00.127Z,16.60
2022-10-06T09:42:10.350Z,16.67
2022-10-06T09:46:28.312Z,16.73
2022-10-06T09:50:30.304Z,16.75
2022-10-06T09:54:34.497Z,16.74
2022-10-06T09:58:39.134Z,16.95
2022-10-06T10:02:41.339Z,17.08
2022-10-06T10:06:43.510Z,17.20
2022-10-06T10:10:45.554Z,17.26
2022-10-06T10:14:48.148Z,17.23
2022-10-06T10:18:51.303Z,17.26
2022-10-06T10:22:54.976Z,17.20
2022-10-06T10:27:09.028Z,17.08
2022-10-06T10:31:16.022Z,17.05
2022-10-06T10:35:30.508Z,17.14
2022-10-06T10:39:54.689Z,17.14
2022-10-06T10:44:08.736Z,17.10
2022-10-06T10:48:21.021Z,17.07
2022-10-06T10:52:28.993Z,17.11
2022-10-06T10:56:33.576Z,17.13
2022-10-06T11:00:41.155Z,17.08
2022-10-06T11:04:47.157Z,17.05
2022-10-06T11:09:11.049Z,17.19
2022-10-06T11:13:23.068Z,17.31
2022-10-06T11:17:44.177Z,17.43
2022-10-06T11:21:52.971Z,17.47
2022-10-06T11:26:13.696Z,17.49
2022-10-06T11:30:19.635Z,17.50
2022-10-06T11:34:21.696Z,17.51
2022-10-06T11:38:37.850Z,17.56
2022-10-06T11:42:55.818Z,17.62
2022-10-06T11:47:06.195Z,17.67
2022-10-06T11:51:17.424Z,17.71
2022-10-06T11:55:23.782Z,17.59
2022-10-06T11:59:28.455Z,17.66
2022-10-06T12:03:33.382Z,17.68
2022-10-06T12:07:54.213Z,17.66
2022-10-06T12:11:59.357Z,17.68
2022-10-06T12:21:09.845Z,17.84
2022-10-06T12:25:52.122Z,17.91
2022-10-06T12:30:22.669Z,17.97
2022-10-06T12:34:57.258Z,18.00
2022-10-06T12:39:05.941Z,18.05
2022-10-06T12:43:20.907Z,18.04
2022-10-06T12:47:32.426Z,18.12
2022-10-06T12:51:45.863Z,18.21
2022-10-06T12:55:52.650Z,18.25
2022-10-06T12:59:54.680Z,18.31
2022-10-06T13:03:56.718Z,18.32
2022-10-06T13:08:35.143Z,18.34
2022-10-06T13:12:38.183Z,18.32
2022-10-06T13:16:45.828Z,18.37
2022-10-06T13:20:53.517Z,18.42
2022-10-06T13:25:01.556Z,18.42
2022-10-06T13:29:03.713Z,18.37
2022-10-06T13:33:07.335Z,18.40
2022-10-06T13:41:26.776Z,18.43
2022-10-06T13:45:29.011Z,18.45
2022-10-06T13:49:58.735Z,18.50
2022-10-06T13:54:23.803Z,18.50
2022-10-06T13:58:29.881Z,18.56
2022-10-06T14:02:36.393Z,18.54
2022-10-06T14:06:44.638Z,18.50
2022-10-06T14:10:50.688Z,18.43
2022-10-06T14:14:53.132Z,18.42
2022-10-06T14:19:00.556Z,18.45
2022-10-06T14:23:02.583Z,18.44
2022-10-06T14:27:06.685Z,18.45
2022-10-06T14:31:14.141Z,18.49
2022-10-06T14:35:16.566Z,18.47
2022-10-06T14:39:19.187Z,18.45
2022-10-06T14:43:21.313Z,18.39
2022-10-06T14:47:23.324Z,18.31
2022-10-06T14:51:27.069Z,18.24
2022-10-06T14:55:30.738Z,18.18
2022-10-06T14:59:33.016Z,18.12
2022-10-06T15:03:36.344Z,18.05
2022-10-06T15:07:57.072Z,18.08
2022-10-06T15:11:59.967Z,18.03
2022-10-06T15:16:02.082Z,18.01
2022-10-06T15:20:04.463Z,18.00
2022-10-06T15:24:08.050Z,17.93
2022-10-06T15:28:31.705Z,17.83
2022-10-06T15:32:33.738Z,17.78
2022-10-06T15:36:37.529Z,17.73
2022-10-06T15:40:39.522Z,17.68
2022-10-06T15:44:41.509Z,17.58
2022-10-06T15:48:44.329Z,17.47
2022-10-06T15:52:46.541Z,17.37
2022-10-06T15:56:53.207Z,17.30
2022-10-06T16:00:55.226Z,17.22
2022-10-06T16:05:17.518Z,17.15
2022-10-06T16:09:19.746Z,17.03
2022-10-06T16:13:21.714Z,16.90
2022-10-06T16:17:23.678Z,16.79
2022-10-06T16:21:25.701Z,16.61
2022-10-06T16:25:27.739Z,16.46
2022-10-06T16:29:29.887Z,16.36
2022-10-06T16:33:31.929Z,16.25
2022-10-06T16:37:34.061Z,16.11
2022-10-06T16:41:36.090Z,15.86
2022-10-06T16:45:38.095Z,15.69
2022-10-06T16:49:40.187Z,15.54
2022-10-06T16:53:50.583Z,15.35
2022-10-06T16:57:52.589Z,15.19
2022-10-06T17:01:54.567Z,14.98
2022-10-06T17:06:01.888Z,14.78
2022-10-06T17:10:20.900Z,14.57
2022-10-06T17:14:23.430Z,14.35
2022-10-06T17:18:25.560Z,14.29
2022-10-06T17:22:27.652Z,14.06
2022-10-06T17:26:32.569Z,13.79
2022-10-06T17:30:34.621Z,13.63
2022-10-06T17:34:36.642Z,13.47
2022-10-06T17:38:41.924Z,13.32
2022-10-06T17:42:43.971Z,13.21
2022-10-06T17:46:46.128Z,13.08
2022-10-06T17:50:57.400Z,12.96
2022-10-06T17:54:59.410Z,12.88
2022-10-06T17:59:07.571Z,12.72
2022-10-06T18:03:09.596Z,12.59
2022-10-06T18:07:11.614Z,12.34
2022-10-06T18:11:35.429Z,12.23
2022-10-06T18:15:37.642Z,12.11
2022-10-06T18:19:39.663Z,12.05
2022-10-06T18:23:43.490Z,11.96
2022-10-06T18:27:47.562Z,11.69
2022-10-06T18:31:51.846Z,11.47
2022-10-06T18:36:14.618Z,11.23
2022-10-06T18:40:17.309Z,11.18
2022-10-06T18:44:39.336Z,11.33
2022-10-06T18:49:00.018Z,11.26
2022-10-06T18:53:04.121Z,11.14
2022-10-06T18:57:06.144Z,11.14
2022-10-06T19:01:08.325Z,11.04
2022-10-06T19:05:10.419Z,11.02
2022-10-06T19:09:17.333Z,10.91
2022-10-06T19:13:20.276Z,10.69
2022-10-06T19:17:24.241Z,10.67
2022-10-06T19:21:27.448Z,10.61
2022-10-06T19:25:30.029Z,10.57
2022-10-06T19:29:36.949Z,10.35
2022-10-06T19:33:39.705Z,10.05
2022-10-06T19:37:42.106Z,9.80
2022-10-06T19:42:03.068Z,9.83
2022-10-06T19:46:05.188Z,9.85
2022-10-06T19:50:12.096Z,9.78
2022-10-06T19:54:17.520Z,9.66
2022-10-06T19:58:19.524Z,9.50
2022-10-06T20:02:21.573Z,9.26
2022-10-06T20:06:23.961Z,9.22
2022-10-06T20:10:26.089Z,9.25
2022-10-06T20:14:29.004Z,9.32
2022-10-06T20:18:36.224Z,9.28
2022-10-06T20:22:38.248Z,9.12
2022-10-06T20:26:43.128Z,9.13
2022-10-06T20:30:50.014Z,9.13
2022-10-06T20:34:52.657Z,9.05
2022-10-06T20:39:13.863Z,8.86
2022-10-06T20:43:15.921Z,8.84
2022-10-06T20:47:18.006Z,8.93
2022-10-06T20:51:23.134Z,8.96
2022-10-06T20:55:28.980Z,8.96
2022-10-06T20:59:31.837Z,8.79
2022-10-06T21:03:35.124Z,8.51
2022-10-06T21:07:37.309Z,8.29
2022-10-06T21:11:39.824Z,8.27
2022-10-06T21:15:45.692Z,8.34
2022-10-06T21:19:47.966Z,8.40
2022-10-06T21:23:50.313Z,8.44
2022-10-06T21:27:52.497Z,8.26
2022-10-06T21:31:55.520Z,8.02
2022-10-06T21:35:59.890Z,7.96
2022-10-06T21:40:02.685Z,7.86
2022-10-06T21:44:09.441Z,7.84
2022-10-06T21:48:11.666Z,7.73
2022-10-06T21:52:13.860Z,7.80
2022-10-06T21:56:16.329Z,7.82
2022-10-06T22:00:18.621Z,7.88
2022-10-06T22:04:20.806Z,7.87
2022-10-06T22:08:23.044Z,7.86
2022-10-06T22:12:25.234Z,7.88
2022-10-06T22:16:30.860Z,7.84
2022-10-06T22:20:34.451Z,7.80
2022-10-06T22:24:36.629Z,7.63
2022-10-06T22:28:40.211Z,7.33
2022-10-06T22:32:42.562Z,7.13
2022-10-06T22:36:45.034Z,7.13
2022-10-06T22:40:47.196Z,7.18
2022-10-06T22:44:49.369Z,7.26
2022-10-06T22:48:51.590Z,7.18
2022-10-06T22:52:53.792Z,7.21
2022-10-06T22:56:56.992Z,7.23
2022-10-06T23:01:08.571Z,7.14
2022-10-06T23:05:10.830Z,6.90
2022-10-06T23:09:13.085Z,6.77
2022-10-06T23:13:15.296Z,6.76
2022-10-06T23:17:17.491Z,6.82
2022-10-06T23:21:22.537Z,6.71
2022-10-06T23:25:27.248Z,6.78
2022-10-06T23:29:30.800Z,6.91
2022-10-06T23:33:33.945Z,6.81
2022-10-06T23:37:37.833Z,6.76
2022-10-06T23:41:41.656Z,6.86
2022-10-06T23:45:43.986Z,6.97
2022-10-06T23:49:46.249Z,6.90
2022-10-06T23:53:48.533Z,6.83
2022-10-06T23:57:50.709Z,6.83
